createdAt,value
2023-02-02T00:38:47.251Z,22.72
2023-02-02T00:39:47.236Z,22.79
2023-02-02T00:40:47.212Z,22.75
2023-02-02T00:41:47.210Z,22.68
2023-02-02T00:42:47.164Z,22.74
2023-02-02T00:43:47.135Z,22.79
2023-02-02T00:44:47.105Z,22.71
2023-02-02T00:45:47.101Z,22.77
2023-02-02T00:46:47.087Z,22.82
2023-02-02T00:47:47.049Z,22.69
2023-02-02T00:48:47.022Z,22.71
2023-02-02T00:49:47.034Z,22.85
2023-02-02T00:50:46.978Z,22.77
2023-02-02T00:51:46.953Z,22.64
2023-02-02T00:52:46.916Z,22.81
2023-02-02T00:53:46.905Z,22.88
2023-02-02T00:54:46.879Z,22.82
2023-02-02T00:55:46.843Z,22.73
2023-02-02T00:56:46.815Z,22.83
2023-02-02T00:57:46.792Z,22.85
2023-02-02T00:58:46.777Z,22.83
2023-02-02T00:59:46.743Z,22.71
2023-02-02T01:00:46.778Z,22.95
2023-02-02T01:01:46.725Z,22.85
2023-02-02T01:02:46.673Z,22.81
2023-02-02T01:03:46.624Z,22.81
2023-02-02T01:04:46.591Z,22.82
2023-02-02T01:05:46.573Z,22.73
2023-02-02T01:06:46.545Z,22.85
2023-02-02T01:07:46.536Z,22.89
2023-02-02T01:08:46.509Z,22.94
2023-02-02T01:09:46.482Z,22.83
2023-02-02T01:10:46.445Z,22.82
2023-02-02T01:11:46.413Z,22.88
2023-02-02T01:12:46.385Z,22.87
2023-02-02T01:13:46.361Z,22.85
2023-02-02T01:14:46.338Z,22.91
2023-02-02T01:15:46.319Z,22.85
2023-02-02T01:16:46.336Z,22.94
2023-02-02T01:17:46.251Z,22.87
2023-02-02T01:18:46.231Z,22.90
2023-02-02T01:19:46.224Z,22.88
2023-02-02T01:20:46.172Z,22.89
2023-02-02T01:21:46.183Z,22.75
2023-02-02T01:22:46.138Z,22.87
2023-02-02T01:23:46.107Z,22.88
2023-02-02T01:24:46.073Z,22.81
2023-02-02T01:25:46.049Z,22.94
2023-02-02T01:26:46.034Z,22.89
2023-02-02T01:27:45.973Z,22.83
2023-02-02T01:28:45.944Z,22.83
2023-02-02T01:29:45.944Z,22.78
2023-02-02T01:30:45.890Z,22.83
2023-02-02T01:31:45.899Z,22.72
2023-02-02T01:32:45.825Z,22.88
2023-02-02T01:33:45.841Z,22.89
2023-02-02T01:34:45.780Z,22.94
2023-02-02T01:35:45.765Z,22.95
2023-02-02T01:36:45.737Z,22.95
2023-02-02T01:37:45.721Z,22.91
2023-02-02T01:38:45.677Z,22.76
2023-02-02T01:39:45.639Z,22.91
2023-02-02T01:40:45.630Z,22.89
2023-02-02T01:41:45.578Z,22.86
2023-02-02T01:42:45.550Z,22.88
2023-02-02T01:43:45.620Z,22.91
2023-02-02T01:44:45.493Z,22.85
2023-02-02T01:45:45.531Z,22.88
2023-02-02T01:46:45.458Z,22.95
2023-02-02T01:47:45.406Z,22.88
2023-02-02T01:48:45.379Z,22.89
2023-02-02T01:49:45.363Z,22.85
2023-02-02T01:50:45.329Z,22.88
2023-02-02T01:51:45.311Z,22.95
2023-02-02T01:52:45.272Z,22.88
2023-02-02T01:53:45.236Z,22.83
2023-02-02T01:54:45.212Z,22.91
2023-02-02T01:55:45.178Z,22.95
2023-02-02T01:56:45.144Z,22.92
2023-02-02T01:57:45.134Z,22.94
2023-02-02T01:58:45.104Z,22.96
2023-02-02T01:59:45.111Z,23.01
2023-02-02T02:00:46.930Z,22.95
2023-02-02T02:01:45.000Z,22.92
2023-02-02T02:02:44.995Z,22.89
2023-02-02T02:03:44.940Z,22.95
2023-02-02T02:04:44.909Z,22.98
2023-02-02T02:05:44.918Z,22.91
2023-02-02T02:06:44.856Z,22.95
2023-02-02T02:07:44.821Z,22.85
2023-02-02T02:08:44.792Z,22.92
2023-02-02T02:09:44.758Z,22.97
2023-02-02T02:10:44.726Z,22.82
2023-02-02T02:11:44.689Z,22.85
2023-02-02T02:12:44.660Z,22.94
2023-02-02T02:13:44.647Z,22.99
2023-02-02T02:14:44.610Z,22.99
2023-02-02T02:15:44.599Z,22.95
2023-02-02T02:16:44.566Z,22.96
2023-02-02T02:17:44.534Z,22.92
2023-02-02T02:18:44.520Z,22.90
2023-02-02T02:19:44.495Z,22.98
2023-02-02T02:20:44.437Z,22.98
2023-02-02T02:21:44.423Z,22.96
2023-02-02T02:22:44.404Z,23.02
2023-02-02T02:23:44.357Z,22.90
2023-02-02T02:24:44.332Z,22.86
2023-02-02T02:25:44.305Z,23.01
2023-02-02T02:26:44.343Z,23.02
2023-02-02T02:27:44.244Z,22.96
2023-02-02T02:28:44.225Z,23.05
2023-02-02T02:29:44.193Z,22.92
2023-02-02T02:30:44.244Z,23.08
2023-02-02T02:31:44.214Z,22.98
2023-02-02T02:32:44.107Z,22.96
2023-02-02T02:33:44.074Z,22.98
2023-02-02T02:34:44.052Z,22.93
2023-02-02T02:35:44.034Z,23.03
2023-02-02T02:36:44.001Z,23.00
2023-02-02T02:37:43.977Z,22.95
2023-02-02T02:52:43.583Z,23.10
2023-02-02T02:53:43.533Z,23.06
2023-02-02T02:57:43.434Z,22.98
2023-02-02T02:58:43.400Z,23.00
2023-02-02T02:59:43.363Z,23.06
2023-02-02T03:00:43.387Z,23.01
2023-02-02T03:01:43.350Z,23.03
2023-02-02T03:02:43.336Z,23.06
2023-02-02T03:03:43.254Z,23.02
2023-02-02T03:04:43.245Z,22.99
2023-02-02T03:05:43.221Z,23.05
2023-02-02T03:06:43.179Z,23.09
2023-02-02T03:07:43.161Z,23.06
2023-02-02T03:08:43.194Z,22.98
2023-02-02T03:09:43.114Z,22.92
2023-02-02T03:10:43.123Z,23.03
2023-02-02T03:11:43.053Z,23.03
2023-02-02T03:12:43.044Z,22.93
2023-02-02T03:13:43.017Z,23.01
2023-02-02T03:14:42.979Z,23.03
2023-02-02T03:15:42.961Z,23.02
2023-02-02T03:16:42.924Z,23.09
2023-02-02T03:17:42.883Z,23.00
2023-02-02T03:18:42.859Z,23.02
2023-02-02T03:19:42.848Z,23.05
2023-02-02T03:38:42.289Z,23.05
2023-02-02T07:51:40.150Z,25.02
2023-02-02T07:52:37.834Z,25.05
2023-02-02T07:53:37.761Z,25.08
2023-02-02T07:54:37.750Z,25.07
2023-02-02T07:55:37.714Z,25.00
2023-02-02T07:56:37.738Z,25.01
2023-02-02T07:57:37.757Z,24.93
2023-02-02T07:58:38.556Z,25.09
2023-02-02T07:59:37.633Z,24.99
2023-02-02T08:00:37.698Z,24.99
2023-02-02T08:01:37.571Z,24.99
2023-02-02T08:02:37.540Z,25.00
2023-02-02T08:03:37.484Z,24.99
2023-02-02T08:04:37.451Z,24.98
2023-02-02T08:05:37.440Z,24.88
2023-02-02T08:06:37.393Z,24.95
2023-02-02T08:07:37.406Z,25.03
2023-02-02T08:09:37.328Z,24.86
2023-02-02T08:10:37.307Z,24.93
2023-02-02T08:11:37.262Z,24.87
2023-02-02T08:12:37.231Z,24.85
2023-02-02T08:13:37.221Z,24.93
2023-02-02T08:14:37.180Z,24.86
2023-02-02T08:15:37.169Z,24.77
2023-02-02T08:16:37.242Z,24.79
2023-02-02T08:17:37.134Z,24.90
2023-02-02T08:18:37.103Z,24.91
2023-02-02T08:19:37.061Z,24.87
2023-02-02T08:20:37.045Z,24.85
2023-02-02T08:21:37.021Z,24.78
2023-02-02T08:22:37.031Z,24.78
2023-02-02T08:23:36.977Z,24.87
2023-02-02T08:24:36.942Z,24.77
2023-02-02T08:25:36.930Z,24.73
2023-02-02T08:26:36.931Z,24.65
2023-02-02T08:27:37.956Z,24.81
2023-02-02T08:28:36.860Z,24.68
2023-02-02T08:29:36.828Z,24.80
2023-02-02T08:30:36.793Z,24.73
2023-02-02T08:31:36.868Z,24.75
2023-02-02T08:32:36.738Z,24.64
2023-02-02T08:33:36.786Z,24.70
2023-02-02T08:34:36.689Z,24.72
2023-02-02T08:35:36.654Z,24.68
2023-02-02T08:36:36.635Z,24.99
2023-02-02T08:37:36.607Z,24.82
2023-02-02T08:38:36.581Z,25.05
2023-02-02T08:39:36.557Z,25.01
2023-02-02T08:40:36.636Z,25.16
2023-02-02T08:41:36.498Z,25.19
2023-02-02T08:42:36.480Z,25.31
2023-02-02T08:43:36.452Z,25.50
2023-02-02T08:45:00.995Z,25.47
2023-02-02T08:46:02.150Z,25.43
2023-02-02T08:46:37.524Z,25.85
2023-02-02T08:47:36.401Z,25.80
2023-02-02T08:48:36.377Z,26.01
2023-02-02T08:49:36.319Z,25.93
2023-02-02T08:50:36.291Z,26.05
2023-02-02T08:51:36.283Z,26.09
2023-02-02T08:52:36.239Z,26.19
2023-02-02T08:53:36.220Z,26.34
2023-02-02T08:54:36.192Z,26.32
2023-02-02T08:55:36.176Z,26.46
2023-02-02T08:56:36.173Z,26.47
2023-02-02T08:57:36.110Z,26.50
2023-02-02T08:58:36.095Z,26.55
2023-02-02T08:59:36.056Z,26.40
2023-02-02T09:00:36.011Z,26.68
2023-02-02T09:01:35.985Z,26.66
2023-02-02T09:02:36.020Z,26.78
2023-02-02T09:03:35.962Z,26.79
2023-02-02T09:04:35.930Z,26.73
2023-02-02T09:05:35.938Z,26.54
2023-02-02T09:06:35.858Z,26.76
2023-02-02T09:07:35.821Z,26.84
2023-02-02T09:08:35.847Z,26.80
2023-02-02T09:09:35.797Z,26.92
2023-02-02T09:10:36.440Z,27.30
2023-02-02T09:11:35.739Z,27.17
2023-02-02T09:12:35.692Z,27.13
2023-02-02T09:13:35.697Z,27.25
2023-02-02T09:14:35.658Z,27.46
2023-02-02T09:15:35.644Z,27.50
2023-02-02T09:16:35.633Z,27.86
2023-02-02T09:17:35.566Z,27.67
2023-02-02T09:18:35.526Z,27.69
2023-02-02T09:19:35.494Z,27.83
2023-02-02T09:20:35.463Z,27.56
2023-02-02T09:21:35.435Z,27.90
2023-02-02T09:22:35.490Z,27.98
2023-02-02T09:23:35.404Z,28.01
2023-02-02T09:24:35.393Z,27.86
2023-02-02T09:25:35.327Z,26.78
2023-02-02T09:26:35.412Z,23.76
2023-02-02T09:27:35.272Z,23.32
2023-02-02T09:28:36.127Z,23.25
2023-02-02T09:29:35.263Z,24.71
2023-02-02T09:30:35.290Z,25.07
2023-02-02T09:31:35.315Z,25.49
2023-02-02T09:32:35.266Z,26.53
2023-02-02T09:33:35.265Z,26.72
2023-02-02T09:34:35.240Z,26.38
2023-02-02T09:35:35.253Z,26.39
2023-02-02T09:36:35.226Z,26.24
2023-02-02T09:37:35.213Z,26.35
2023-02-02T09:38:35.193Z,26.40
2023-02-02T09:40:35.139Z,26.49
2023-02-02T09:41:35.116Z,26.45
2023-02-02T09:42:35.115Z,26.44
2023-02-02T09:43:35.079Z,26.43
2023-02-02T09:44:35.077Z,26.56
2023-02-02T09:45:35.121Z,26.68
2023-02-02T09:46:35.017Z,26.64
2023-02-02T09:47:35.004Z,27.68
2023-02-02T09:48:34.993Z,27.98
2023-02-02T09:49:35.005Z,28.28
2023-02-02T09:50:35.118Z,28.73
2023-02-02T09:51:34.927Z,29.57
2023-02-02T09:52:34.892Z,29.89
2023-02-02T09:53:36.584Z,29.82
2023-02-02T09:54:34.831Z,30.48
2023-02-02T09:55:34.809Z,29.90
2023-02-02T09:56:34.802Z,29.50
2023-02-02T09:57:34.778Z,29.49
2023-02-02T09:58:34.741Z,29.42
2023-02-02T09:59:34.732Z,29.53
2023-02-02T10:00:34.916Z,28.69
2023-02-02T10:01:34.718Z,28.04
2023-02-02T10:02:34.652Z,28.03
2023-02-02T10:03:34.772Z,27.87
2023-02-02T10:04:34.600Z,27.77
2023-02-02T10:05:34.592Z,27.94
2023-02-02T10:06:34.553Z,27.03
2023-02-02T10:07:34.541Z,26.72
2023-02-02T10:08:35.580Z,26.69
2023-02-02T10:09:34.528Z,26.73
2023-02-02T10:10:34.496Z,26.84
2023-02-02T10:11:34.445Z,26.59
2023-02-02T10:12:34.426Z,26.17
2023-02-02T10:13:34.425Z,26.18
2023-02-02T10:14:34.422Z,26.32
2023-02-02T10:15:34.422Z,26.40
2023-02-02T10:16:34.426Z,26.57
2023-02-02T10:17:34.365Z,25.85
2023-02-02T10:18:34.356Z,25.81
2023-02-02T10:19:34.338Z,25.73
2023-02-02T10:20:34.330Z,25.91
2023-02-02T10:21:34.320Z,26.00
2023-02-02T10:22:34.338Z,25.96
2023-02-02T10:23:34.304Z,25.29
2023-02-02T10:24:34.304Z,25.60
2023-02-02T10:25:34.309Z,25.74
2023-02-02T10:26:34.338Z,25.82
2023-02-02T10:27:34.310Z,25.98
2023-02-02T10:28:34.292Z,25.59
2023-02-02T10:29:48.090Z,25.48
2023-02-02T10:30:35.347Z,25.41
2023-02-02T10:31:34.414Z,25.44
2023-02-02T10:32:34.267Z,25.51
2023-02-02T10:33:34.264Z,24.95
2023-02-02T10:34:34.261Z,24.98
2023-02-02T10:35:34.253Z,25.03
2023-02-02T10:36:34.259Z,24.94
2023-02-02T10:37:34.244Z,25.12
2023-02-02T10:38:35.987Z,25.21
2023-02-02T10:39:34.233Z,24.99
2023-02-02T10:40:34.215Z,24.86
2023-02-02T10:41:34.207Z,25.51
2023-02-02T10:42:34.245Z,25.81
2023-02-02T10:43:34.186Z,26.32
2023-02-02T10:44:34.180Z,27.09
2023-02-02T10:45:34.158Z,26.73
2023-02-02T10:46:34.318Z,27.46
2023-02-02T10:47:34.140Z,27.28
2023-02-02T10:48:34.124Z,27.17
2023-02-02T10:49:34.111Z,27.17
2023-02-02T10:50:34.093Z,26.35
2023-02-02T10:51:34.101Z,25.82
2023-02-02T10:52:34.058Z,25.74
2023-02-02T10:53:34.081Z,25.53
2023-02-02T10:54:38.126Z,25.40
2023-02-02T10:55:35.047Z,25.42
2023-02-02T10:56:34.036Z,24.81
2023-02-02T10:57:34.139Z,24.60
2023-02-02T10:58:34.093Z,24.58
2023-02-02T10:59:34.019Z,24.57
2023-02-02T11:00:34.006Z,24.76
2023-02-02T11:01:34.138Z,24.82
2023-02-02T11:02:34.037Z,24.27
2023-02-02T11:03:33.985Z,24.15
2023-02-02T11:04:33.989Z,24.24
2023-02-02T11:05:33.979Z,24.31
2023-02-02T11:06:33.987Z,24.43
2023-02-02T11:07:33.965Z,24.37
2023-02-02T11:08:33.993Z,24.78
2023-02-02T11:09:33.965Z,24.84
2023-02-02T11:10:33.993Z,25.11
2023-02-02T11:11:33.955Z,25.47
2023-02-02T11:12:33.993Z,25.46
2023-02-02T11:13:33.995Z,25.58
2023-02-02T11:14:41.880Z,25.81
2023-02-02T11:15:35.021Z,25.89
2023-02-02T11:16:42.519Z,26.22
2023-02-02T11:17:34.926Z,26.29
2023-02-02T11:18:33.904Z,26.23
2023-02-02T11:19:33.869Z,26.37
2023-02-02T11:20:33.865Z,26.52
2023-02-02T11:21:33.845Z,26.73
2023-02-02T11:22:33.835Z,27.05
2023-02-02T11:23:33.836Z,26.88
2023-02-02T11:24:33.815Z,26.87
2023-02-02T11:25:33.789Z,27.16
2023-02-02T11:26:33.798Z,27.19
2023-02-02T11:27:33.744Z,27.38
2023-02-02T11:28:33.749Z,27.41
2023-02-02T11:29:33.728Z,27.24
2023-02-02T11:30:33.744Z,27.53
2023-02-02T11:31:33.798Z,27.60
2023-02-02T11:32:33.663Z,27.76
2023-02-02T11:33:33.767Z,27.89
2023-02-02T11:34:33.620Z,27.73
2023-02-02T11:35:33.666Z,28.23
2023-02-02T11:36:33.585Z,28.29
2023-02-02T11:37:33.593Z,28.58
2023-02-02T11:38:33.578Z,28.44
2023-02-02T11:39:33.532Z,28.11
2023-02-02T11:40:33.528Z,28.18
2023-02-02T11:41:33.505Z,28.37
2023-02-02T11:42:33.490Z,28.31
2023-02-02T11:43:33.493Z,28.20
2023-02-02T11:44:33.459Z,28.43
2023-02-02T11:45:33.431Z,28.89
2023-02-02T11:46:33.483Z,28.92
2023-02-02T11:47:33.397Z,28.96
2023-02-02T11:48:33.365Z,28.99
2023-02-02T11:49:33.343Z,29.08
2023-02-02T11:50:33.334Z,29.25
2023-02-02T11:51:33.307Z,29.23
2023-02-02T11:52:33.267Z,29.48
2023-02-02T11:53:33.272Z,29.64
2023-02-02T11:54:33.245Z,29.77
2023-02-02T11:55:33.225Z,29.93
2023-02-02T11:56:33.173Z,29.99
2023-02-02T11:57:33.136Z,30.13
2023-02-02T11:58:33.121Z,29.95
2023-02-02T11:59:33.104Z,30.14
2023-02-02T12:00:33.073Z,30.17
2023-02-02T12:01:33.041Z,30.14
2023-02-02T12:02:33.016Z,30.25
2023-02-02T12:03:32.985Z,30.26
2023-02-02T12:04:33.026Z,30.20
2023-02-02T12:05:32.930Z,30.29
2023-02-02T12:06:32.890Z,30.80
2023-02-02T12:07:32.880Z,30.51
2023-02-02T12:08:32.851Z,30.72
2023-02-02T12:18:33.146Z,31.29
2023-02-02T12:38:32.045Z,28.20
2023-02-02T12:39:32.017Z,27.87
2023-02-02T12:40:32.029Z,27.67
2023-02-02T12:41:31.981Z,27.84
2023-02-02T12:42:31.948Z,28.02
2023-02-02T12:43:32.603Z,27.95
2023-02-02T12:44:31.951Z,27.81
2023-02-02T12:45:31.893Z,27.54
2023-02-02T12:46:31.854Z,27.37
2023-02-02T12:47:31.823Z,27.61
2023-02-02T12:48:31.821Z,27.66
2023-02-02T12:49:31.792Z,27.48
2023-02-02T12:50:31.789Z,27.34
2023-02-02T12:51:31.761Z,26.91
2023-02-02T12:52:31.728Z,27.26
2023-02-02T12:53:31.697Z,27.38
2023-02-02T12:54:33.434Z,27.37
2023-02-02T12:56:31.668Z,27.25
2023-02-02T12:57:31.633Z,27.42
2023-02-02T12:58:31.627Z,27.84
2023-02-02T12:59:31.604Z,27.61
2023-02-02T13:00:31.577Z,27.43
2023-02-02T13:01:31.632Z,27.36
2023-02-02T13:02:31.591Z,26.88
2023-02-02T13:03:31.512Z,27.08
2023-02-02T13:04:31.497Z,27.35
2023-02-02T13:05:31.484Z,27.27
2023-02-02T13:06:31.452Z,27.01
2023-02-02T13:07:31.436Z,26.67
2023-02-02T13:08:31.401Z,26.70
2023-02-02T13:09:31.379Z,26.87
2023-02-02T13:10:31.380Z,26.96
2023-02-02T13:11:31.346Z,26.86
2023-02-02T13:12:31.317Z,26.62
2023-02-02T13:13:31.327Z,26.44
2023-02-02T13:14:31.299Z,26.53
2023-02-02T13:15:31.296Z,26.73
2023-02-02T13:16:31.285Z,26.72
2023-02-02T13:17:31.220Z,26.53
2023-02-02T13:18:31.221Z,26.30
2023-02-02T13:19:31.191Z,26.40
2023-02-02T13:20:31.164Z,26.26
2023-02-02T13:21:31.153Z,26.60
2023-02-02T13:22:31.114Z,26.48
2023-02-02T13:23:31.097Z,26.36
2023-02-02T13:24:31.095Z,26.10
2023-02-02T13:25:31.056Z,26.12
2023-02-02T13:26:31.181Z,26.07
2023-02-02T13:27:31.009Z,26.35
2023-02-02T13:28:30.983Z,26.22
2023-02-02T13:29:30.948Z,26.04
2023-02-02T13:30:30.958Z,26.04
2023-02-02T13:31:30.981Z,26.07
2023-02-02T13:32:30.871Z,26.16
2023-02-02T13:33:30.857Z,26.14
2023-02-02T13:34:30.844Z,26.07
2023-02-02T13:35:30.813Z,25.80
2023-02-02T13:36:30.800Z,25.84
2023-02-02T13:37:30.791Z,26.00
2023-02-02T13:38:30.750Z,26.13
2023-02-02T13:39:30.748Z,26.05
2023-02-02T13:41:30.696Z,25.67
2023-02-02T13:42:30.669Z,25.79
2023-02-02T13:43:30.652Z,25.92
2023-02-02T13:44:30.649Z,26.03
2023-02-02T13:45:30.624Z,25.84
2023-02-02T13:46:30.626Z,25.70
2023-02-02T13:47:30.584Z,25.65
2023-02-02T13:58:30.326Z,25.46
2023-02-02T14:07:30.137Z,25.44
2023-02-02T14:11:30.110Z,25.64
2023-02-02T14:17:29.987Z,25.65
2023-02-02T14:18:29.959Z,25.47
2023-02-02T14:20:29.891Z,25.37
2023-02-02T14:21:29.867Z,25.45
2023-02-02T14:22:29.898Z,25.56
2023-02-02T14:23:29.822Z,25.48
2023-02-02T14:24:29.817Z,25.23
2023-02-02T14:25:29.791Z,25.32
2023-02-02T14:26:29.938Z,25.42
2023-02-02T14:27:29.873Z,25.56
2023-02-02T14:28:29.727Z,25.52
2023-02-02T14:29:29.699Z,25.37
2023-02-02T14:30:29.667Z,25.29
2023-02-02T14:31:29.926Z,25.34
2023-02-02T14:32:29.718Z,25.46
2023-02-02T14:33:29.618Z,25.52
2023-02-02T14:34:29.609Z,25.36
2023-02-02T14:35:29.715Z,25.25
2023-02-02T14:36:29.578Z,25.25
2023-02-02T14:37:29.555Z,25.41
2023-02-02T14:38:29.524Z,25.40
2023-02-02T14:39:29.520Z,25.42
2023-02-02T14:40:29.492Z,25.33
2023-02-02T14:41:29.463Z,25.16
2023-02-02T14:42:29.458Z,25.19
2023-02-02T14:43:29.441Z,25.42
2023-02-02T14:44:29.433Z,25.47
2023-02-02T14:45:29.407Z,25.30
2023-02-02T14:46:29.421Z,25.10
2023-02-02T14:47:29.373Z,25.20
2023-02-02T14:48:29.365Z,25.29
2023-02-02T14:49:29.336Z,25.37
2023-02-02T14:50:29.335Z,25.41
2023-02-02T14:51:29.383Z,25.17
2023-02-02T14:52:29.308Z,25.14
2023-02-02T14:53:29.272Z,25.26
2023-02-02T14:54:29.274Z,25.31
2023-02-02T14:55:29.258Z,25.35
2023-02-02T14:56:29.214Z,25.24
2023-02-02T14:57:29.215Z,25.07
2023-02-02T14:58:29.175Z,25.32
2023-02-02T14:59:29.166Z,25.35
2023-02-02T15:00:29.151Z,25.36
2023-02-02T15:01:29.212Z,25.32
2023-02-02T15:02:29.200Z,25.15
2023-02-02T15:03:29.086Z,25.19
2023-02-02T15:04:29.077Z,25.27
2023-02-02T15:05:29.051Z,25.34
2023-02-02T15:06:29.025Z,25.37
2023-02-02T15:07:28.987Z,25.23
2023-02-02T15:08:28.977Z,25.15
2023-02-02T15:09:28.958Z,25.24
2023-02-02T15:10:28.929Z,25.33
2023-02-02T15:11:28.945Z,25.42
2023-02-02T15:12:28.897Z,25.31
2023-02-02T15:13:28.893Z,25.08
2023-02-02T15:14:28.861Z,25.15
2023-02-02T15:15:29.042Z,25.29
2023-02-02T15:16:28.837Z,25.31
2023-02-02T15:50:28.178Z,25.09
2023-02-02T19:33:23.558Z,25.18
2023-02-02T19:34:23.550Z,25.15
2023-02-02T19:35:23.846Z,25.25
2023-02-02T19:36:23.487Z,25.23
2023-02-02T19:37:23.471Z,25.18
2023-02-02T19:38:23.455Z,25.23
2023-02-02T19:39:23.411Z,25.21
2023-02-02T19:40:23.526Z,25.21
2023-02-02T19:41:23.359Z,25.23
2023-02-02T19:42:23.343Z,25.25
2023-02-02T19:43:23.318Z,25.29
2023-02-02T19:44:23.305Z,25.23
2023-02-02T19:45:23.266Z,25.27
2023-02-02T19:46:23.299Z,25.22
2023-02-02T19:47:23.231Z,25.17
2023-02-02T19:48:23.218Z,25.21
2023-02-02T19:49:23.177Z,25.19
2023-02-02T19:50:23.182Z,25.21
2023-02-02T19:51:23.138Z,25.25
2023-02-02T19:52:23.122Z,25.21
2023-02-02T19:53:23.143Z,25.21
2023-02-02T19:54:23.079Z,25.20
2023-02-02T19:55:23.051Z,25.20
2023-02-02T19:56:23.014Z,25.21
2023-02-02T19:57:22.992Z,25.27
2023-02-02T19:58:22.973Z,25.17
2023-02-02T19:59:22.941Z,25.07
2023-02-02T20:00:22.945Z,25.21
2023-02-02T20:01:22.885Z,25.25
2023-02-02T20:02:22.870Z,25.17
2023-02-02T20:03:23.049Z,25.18
2023-02-02T20:04:22.828Z,25.18
2023-02-02T20:05:22.800Z,25.22
2023-02-02T20:06:22.786Z,25.26
2023-02-02T20:07:22.756Z,25.19
2023-02-02T20:08:22.754Z,25.15
2023-02-02T20:09:22.718Z,25.14
2023-02-02T20:10:22.694Z,25.22
2023-02-02T20:11:22.676Z,25.26
2023-02-02T20:12:22.669Z,25.26
2023-02-02T20:13:22.666Z,25.22
2023-02-02T20:14:22.627Z,25.07
2023-02-02T20:15:22.601Z,25.15
2023-02-02T20:16:22.612Z,25.18
2023-02-02T20:17:22.560Z,25.22
2023-02-02T20:18:22.552Z,25.22
2023-02-02T20:19:22.507Z,25.13
2023-02-02T20:20:22.515Z,25.18
2023-02-02T20:21:22.472Z,25.25
2023-02-02T20:22:22.433Z,25.21
2023-02-02T20:23:22.407Z,25.13
2023-02-02T20:24:22.455Z,25.22
2023-02-02T20:25:22.367Z,25.21
2023-02-02T20:26:22.391Z,25.26
2023-02-02T20:27:22.312Z,25.18
2023-02-02T20:28:22.291Z,25.19
2023-02-02T20:29:22.306Z,25.21
2023-02-02T20:30:22.249Z,25.19
2023-02-02T20:31:22.379Z,25.22
2023-02-02T20:32:22.221Z,25.23
2023-02-02T20:33:22.190Z,25.22
2023-02-02T20:34:22.166Z,25.25
2023-02-02T20:35:22.120Z,25.23
2023-02-02T20:36:22.133Z,25.17
2023-02-02T20:37:22.084Z,25.23
2023-02-02T20:38:22.090Z,25.17
2023-02-02T20:39:22.048Z,25.15
2023-02-02T20:40:22.027Z,25.22
2023-02-02T20:41:22.042Z,25.18
2023-02-02T20:42:21.986Z,25.15
2023-02-02T20:43:21.963Z,25.23
2023-02-02T20:44:21.927Z,25.23
2023-02-02T20:45:21.907Z,25.07
2023-02-02T20:46:21.919Z,25.19
2023-02-02T20:47:21.858Z,25.10
2023-02-02T20:48:21.830Z,25.17
2023-02-02T20:49:21.793Z,25.21
2023-02-02T20:50:21.822Z,25.21
2023-02-02T20:51:21.786Z,25.15
2023-02-02T20:52:21.732Z,25.12
2023-02-02T20:53:21.718Z,25.19
2023-02-02T20:54:21.702Z,25.21
2023-02-02T20:55:21.667Z,25.11
2023-02-02T20:56:21.644Z,25.21
2023-02-02T20:57:21.610Z,25.29
2023-02-02T20:58:21.599Z,25.18
2023-02-02T20:59:21.571Z,25.25
2023-02-02T21:00:21.557Z,25.10
2023-02-02T21:01:21.553Z,25.14
2023-02-02T21:02:21.560Z,25.19
2023-02-02T21:03:21.495Z,25.10
2023-02-02T21:04:21.496Z,25.11
2023-02-02T21:05:21.462Z,25.17
2023-02-02T21:06:21.456Z,25.13
2023-02-02T21:07:21.431Z,25.20
2023-02-02T21:08:21.412Z,25.18
2023-02-02T21:09:21.379Z,25.11
2023-02-02T21:10:21.356Z,25.07
2023-02-02T21:11:21.338Z,25.10
2023-02-02T21:12:21.324Z,25.13
2023-02-02T21:13:21.326Z,25.10
2023-02-02T21:14:21.287Z,25.22
2023-02-02T21:15:21.270Z,25.09
2023-02-02T21:16:21.259Z,25.15
2023-02-02T21:17:21.258Z,25.18
2023-02-02T21:18:21.200Z,25.21
2023-02-02T21:19:21.180Z,25.22
2023-02-02T21:20:21.203Z,25.22
2023-02-02T21:21:21.177Z,25.13
2023-02-02T21:22:21.136Z,25.13
2023-02-02T21:23:21.086Z,25.17
2023-02-02T21:24:21.068Z,25.11
2023-02-02T21:25:21.030Z,25.09
2023-02-02T21:26:21.030Z,25.13
2023-02-02T21:27:21.026Z,25.17
2023-02-02T21:28:20.947Z,25.11
2023-02-02T21:29:20.933Z,25.17
2023-02-02T21:30:20.904Z,25.19
2023-02-02T21:31:21.008Z,25.17
2023-02-02T21:32:20.841Z,25.14
